Time;durP1;ratioP1;P1;durP2;ratioP2;P2;SDS_P1;SDS_P2;PMS_P1;PMS_P2;Temp;Humidity;BMP_temperature;BMP_pressure;BME280_temperature;BME280_humidity;BME280_pressure;Samples;Min_cycle;Max_cycle;Signal;HPM_P1;HPM_P2
2022/07/03 00:01:30;;;;;;;1.58;1.15;;;23.70;58.10;;;;;;5067026;28;20127;-73
2022/07/03 00:04:01;;;;;;;1.83;1.05;;;23.70;58.10;;;;;;5069638;28;20114;-73
2022/07/03 00:06:27;;;;;;;1.38;1.08;;;23.70;58.20;;;;;;5069914;28;20048;-73
2022/07/03 00:08:54;;;;;;;1.08;0.90;;;23.70;58.20;;;;;;5068658;28;20059;-73
2022/07/03 00:11:21;;;;;;;2.20;1.00;;;23.70;58.20;;;;;;5069071;28;20067;-73
2022/07/03 00:13:48;;;;;;;1.50;1.00;;;23.70;58.20;;;;;;5068414;28;20062;-73
2022/07/03 00:16:14;;;;;;;1.20;1.10;;;23.60;58.20;;;;;;5068361;28;20545;-72
2022/07/03 00:18:41;;;;;;;2.78;1.25;;;23.60;58.20;;;;;;5068209;28;20045;-72
2022/07/03 00:21:10;;;;;;;1.10;1.00;;;23.60;58.20;;;;;;5069605;28;20136;-73
2022/07/03 00:23:40;;;;;;;1.67;1.00;;;23.60;58.20;;;;;;5067929;28;20129;-73
2022/07/03 00:26:07;;;;;;;1.65;0.93;;;23.60;58.20;;;;;;5064846;28;20132;-73
2022/07/03 00:28:34;;;;;;;2.25;1.20;;;23.60;58.20;;;;;;5047940;28;20059;-73
2022/07/03 00:31:01;;;;;;;1.20;0.93;;;23.60;58.30;;;;;;5048221;28;20512;-73
2022/07/03 00:33:28;;;;;;;1.38;1.10;;;23.60;58.30;;;;;;5049359;28;20067;-73
2022/07/03 00:35:55;;;;;;;1.20;1.00;;;23.60;58.30;;;;;;5048061;28;20131;-73
2022/07/03 00:38:24;;;;;;;1.50;1.17;;;23.60;58.30;;;;;;5049113;28;20099;-73
2022/07/03 00:40:50;;;;;;;2.50;1.15;;;23.60;58.30;;;;;;5050573;28;20059;-73
2022/07/03 00:43:18;;;;;;;0.93;0.88;;;23.50;58.30;;;;;;5060309;28;20044;-72
2022/07/03 00:45:46;;;;;;;1.60;1.23;;;23.50;58.30;;;;;;5047673;28;20053;-73
2022/07/03 00:48:14;;;;;;;1.40;1.00;;;23.60;58.30;;;;;;5058261;28;20062;-73
2022/07/03 00:50:40;;;;;;;1.90;1.10;;;23.50;58.30;;;;;;5067908;28;20135;-73
2022/07/03 00:53:07;;;;;;;1.25;1.02;;;23.50;58.30;;;;;;5067608;28;20587;-73
2022/07/03 00:55:35;;;;;;;1.15;0.95;;;23.50;58.30;;;;;;5068250;28;20045;-73
2022/07/03 00:58:02;;;;;;;1.55;1.15;;;23.50;58.40;;;;;;5068984;28;20135;-73
2022/07/03 01:00:28;;;;;;;1.70;1.10;;;23.50;58.40;;;;;;5067802;28;20054;-73
2022/07/03 01:02:57;;;;;;;1.20;1.05;;;23.50;58.40;;;;;;5067006;28;20411;-73
2022/07/03 01:05:27;;;;;;;1.33;1.15;;;23.50;58.40;;;;;;5067452;28;20438;-72
2022/07/03 01:08:01;;;;;;;1.30;1.10;;;23.50;58.40;;;;;;5067487;28;20390;-73
2022/07/03 01:10:32;;;;;;;1.20;0.98;;;23.50;58.40;;;;;;5068035;28;20416;-73
2022/07/03 01:13:04;;;;;;;2.47;1.20;;;23.50;58.40;;;;;;5067055;28;20052;-72
2022/07/03 01:15:38;;;;;;;1.70;1.23;;;23.50;58.40;;;;;;5049556;28;20063;-73
2022/07/03 01:18:14;;;;;;;1.65;1.00;;;23.50;58.40;;;;;;5047299;28;20067;-72
2022/07/03 01:20:40;;;;;;;1.33;0.90;;;23.40;58.40;;;;;;5047670;28;20063;-73
2022/07/03 01:23:11;;;;;;;1.88;1.00;;;23.40;58.40;;;;;;5048321;28;20049;-73
2022/07/03 01:25:43;;;;;;;2.00;1.10;;;23.40;58.40;;;;;;5056827;28;20049;-73
2022/07/03 01:28:11;;;;;;;1.10;1.00;;;23.40;58.40;;;;;;5068384;28;20409;-72
2022/07/03 01:30:39;;;;;;;1.40;1.10;;;23.40;58.50;;;;;;5067294;28;20080;-73
2022/07/03 01:33:07;;;;;;;1.48;1.15;;;23.40;58.50;;;;;;5067115;28;20067;-73
2022/07/03 01:35:35;;;;;;;1.42;1.00;;;23.40;58.40;;;;;;5067505;28;20060;-73
2022/07/03 01:38:03;;;;;;;3.42;1.10;;;23.40;58.50;;;;;;5067240;28;20057;-73
2022/07/03 01:40:30;;;;;;;1.35;1.00;;;23.40;58.50;;;;;;5061414;28;20136;-73
2022/07/03 01:42:58;;;;;;;1.42;0.88;;;23.40;58.50;;;;;;5047118;28;20073;-73
2022/07/03 01:45:25;;;;;;;1.65;1.00;;;23.40;58.50;;;;;;5047210;28;20132;-73
2022/07/03 01:47:52;;;;;;;1.48;1.10;;;23.40;58.50;;;;;;5055681;28;20128;-73
2022/07/03 01:50:19;;;;;;;1.60;1.00;;;23.40;58.50;;;;;;5066928;28;20056;-73
2022/07/03 01:52:46;;;;;;;1.63;1.00;;;23.30;58.40;;;;;;5066987;28;20045;-72
2022/07/03 01:55:13;;;;;;;1.42;1.10;;;23.30;58.50;;;;;;5066768;28;20143;-72
2022/07/03 01:57:43;;;;;;;1.65;1.10;;;23.30;58.40;;;;;;5067170;28;20048;-72
2022/07/03 02:00:13;;;;;;;1.65;1.00;;;23.30;58.40;;;;;;5067108;28;20082;-72
2022/07/03 02:02:42;;;;;;;1.23;1.10;;;23.30;58.50;;;;;;5066293;28;20060;-73
2022/07/03 02:05:10;;;;;;;1.63;1.15;;;23.30;58.50;;;;;;5068185;28;20393;-73
2022/07/03 02:07:42;;;;;;;0.93;0.90;;;23.30;58.50;;;;;;5067286;28;20139;-73
2022/07/03 02:10:09;;;;;;;1.52;1.02;;;23.30;58.50;;;;;;5066300;28;20048;-73
2022/07/03 02:12:39;;;;;;;1.00;0.90;;;23.30;58.60;;;;;;5068234;28;20080;-73
2022/07/03 02:15:07;;;;;;;1.10;1.00;;;23.30;58.60;;;;;;5066940;28;20437;-72
2022/07/03 02:17:37;;;;;;;1.23;0.98;;;23.20;58.60;;;;;;5066955;28;20049;-73
2022/07/03 02:20:07;;;;;;;1.20;1.00;;;23.30;58.60;;;;;;5066951;28;20087;-73
2022/07/03 02:22:35;;;;;;;1.60;1.00;;;23.20;58.60;;;;;;5066432;28;20051;-73
2022/07/03 02:25:04;;;;;;;1.08;0.90;;;23.20;58.60;;;;;;5056291;28;20056;-73
2022/07/03 02:27:33;;;;;;;1.10;1.00;;;23.30;58.70;;;;;;5046769;28;20080;-73
2022/07/03 02:30:02;;;;;;;1.27;1.10;;;23.20;58.60;;;;;;5048754;28;20135;-73
2022/07/03 02:32:31;;;;;;;1.17;1.00;;;23.20;58.60;;;;;;5050552;28;20055;-73
2022/07/03 02:35:02;;;;;;;1.10;1.00;;;23.20;58.70;;;;;;5050276;28;20061;-73
2022/07/03 02:37:30;;;;;;;1.73;1.05;;;23.30;58.70;;;;;;5050574;28;20103;-73
2022/07/03 02:40:00;;;;;;;1.20;1.10;;;23.20;58.70;;;;;;5061659;28;20063;-72
2022/07/03 02:42:30;;;;;;;1.40;1.08;;;23.20;58.70;;;;;;5070221;28;20135;-73
2022/07/03 02:44:58;;;;;;;1.65;1.10;;;23.30;58.70;;;;;;5069983;28;20080;-73
2022/07/03 02:47:28;;;;;;;1.55;1.08;;;23.10;58.60;;;;;;5070330;28;20549;-73
2022/07/03 02:50:03;;;;;;;1.17;0.90;;;23.10;58.70;;;;;;5070067;28;20117;-73
2022/07/03 02:52:32;;;;;;;;;;;23.10;58.60;;;;;;5070276;28;20052;-72
2022/07/03 02:55:02;;;;;;;2.45;1.05;;;23.10;58.50;;;;;;5070535;28;19943;-72
2022/07/03 02:57:34;;;;;;;1.20;1.00;;;23.00;58.90;;;;;;5070097;28;20147;-73
2022/07/03 03:00:02;;;;;;;1.42;0.98;;;23.00;58.80;;;;;;5070142;28;20063;-72
2022/07/03 03:02:55;;;;;;;1.65;1.20;;;23.00;58.70;;;;;;5069356;28;20052;-73
2022/07/03 03:05:29;;;;;;;2.22;1.20;;;23.10;58.50;;;;;;5069507;28;20088;-73
2022/07/03 03:08:11;;;;;;;1.20;1.10;;;23.10;58.70;;;;;;5069079;28;20066;-73
2022/07/03 03:10:38;;;;;;;1.42;1.00;;;23.00;58.70;;;;;;5049913;28;20135;-73
2022/07/03 03:13:06;;;;;;;1.33;1.20;;;23.00;58.80;;;;;;5049641;28;20061;-73
2022/07/03 03:15:33;;;;;;;1.20;1.10;;;23.10;58.80;;;;;;5049384;28;20128;-73
2022/07/03 03:18:02;;;;;;;1.30;1.20;;;23.00;58.70;;;;;;5050809;28;20141;-73
2022/07/03 03:20:31;;;;;;;1.20;1.00;;;23.10;58.80;;;;;;5049532;28;20519;-73
2022/07/03 03:23:18;;;;;;;1.80;1.13;;;23.00;58.70;;;;;;5049737;28;20068;-73
2022/07/03 03:25:45;;;;;;;1.42;1.02;;;23.00;58.60;;;;;;5049550;28;20064;-73
2022/07/03 03:28:12;;;;;;;1.27;1.00;;;23.00;58.70;;;;;;5049480;28;20079;-73
2022/07/03 03:30:39;;;;;;;1.10;1.00;;;23.00;58.70;;;;;;5049166;28;20136;-72
2022/07/03 03:33:08;;;;;;;1.63;1.00;;;22.90;58.60;;;;;;5049027;28;20482;-73
2022/07/03 03:35:36;;;;;;;1.20;1.10;;;23.00;58.70;;;;;;5051693;28;20406;-73
2022/07/03 03:38:03;;;;;;;1.27;1.00;;;23.00;58.70;;;;;;5057028;28;20052;-74
2022/07/03 03:40:29;;;;;;;1.02;0.90;;;23.00;58.70;;;;;;5070968;28;20059;-73
2022/07/03 03:42:56;;;;;;;1.02;0.95;;;22.90;58.60;;;;;;5069938;28;20092;-73
2022/07/03 03:45:23;;;;;;;1.42;1.08;;;22.90;58.60;;;;;;5070394;28;20410;-73
2022/07/03 03:47:50;;;;;;;1.20;1.10;;;23.00;58.70;;;;;;5069187;28;20049;-72
2022/07/03 03:50:16;;;;;;;1.20;1.00;;;22.90;58.50;;;;;;5068970;28;20052;-73
2022/07/03 03:52:44;;;;;;;1.20;1.10;;;23.00;58.60;;;;;;5063496;28;20059;-74
2022/07/03 03:55:11;;;;;;;2.63;1.10;;;22.90;58.60;;;;;;5049064;28;20152;-73
2022/07/03 03:57:38;;;;;;;1.20;1.10;;;22.90;58.50;;;;;;5049153;28;20470;-73
2022/07/03 04:00:05;;;;;;;1.20;0.90;;;22.90;58.50;;;;;;5048604;28;20124;-73
2022/07/03 04:02:32;;;;;;;1.27;1.02;;;22.90;58.50;;;;;;5064792;28;20056;-72
2022/07/03 04:04:59;;;;;;;1.30;1.13;;;22.90;58.50;;;;;;5068308;28;20398;-73
2022/07/03 04:07:26;;;;;;;1.20;1.10;;;22.90;58.60;;;;;;5068010;28;20095;-73
2022/07/03 04:09:54;;;;;;;1.10;1.00;;;22.90;58.60;;;;;;5068651;28;20579;-73
2022/07/03 04:12:21;;;;;;;0.93;0.93;;;22.90;58.60;;;;;;5068480;28;20140;-73
2022/07/03 04:14:48;;;;;;;1.30;1.20;;;22.90;58.60;;;;;;5068470;28;20137;-73
2022/07/03 04:17:15;;;;;;;1.60;1.30;;;22.90;58.60;;;;;;5069595;28;20048;-73
2022/07/03 04:19:41;;;;;;;1.65;1.00;;;22.90;58.60;;;;;;5068170;28;20044;-73
2022/07/03 04:22:09;;;;;;;1.15;1.00;;;22.90;58.60;;;;;;5048337;28;20059;-73
2022/07/03 04:24:36;;;;;;;1.08;0.93;;;22.90;58.60;;;;;;5048120;28;20063;-73
2022/07/03 04:27:04;;;;;;;3.38;1.58;;;22.90;58.60;;;;;;5047953;28;20521;-73
2022/07/03 04:29:31;;;;;;;1.67;1.30;;;22.90;58.60;;;;;;5049451;28;20695;-73
2022/07/03 04:31:58;;;;;;;0.90;0.90;;;22.90;58.60;;;;;;5048126;28;20057;-72
2022/07/03 04:34:24;;;;;;;1.30;1.10;;;22.90;58.50;;;;;;5049425;28;20075;-73
2022/07/03 04:36:51;;;;;;;2.55;1.20;;;22.90;58.50;;;;;;5066627;28;20135;-73
2022/07/03 04:39:18;;;;;;;1.20;0.90;;;22.90;58.50;;;;;;5068017;28;20144;-73
2022/07/03 04:41:45;;;;;;;1.10;1.00;;;22.90;58.50;;;;;;5069300;28;20424;-73
2022/07/03 04:44:13;;;;;;;1.77;1.00;;;22.90;58.50;;;;;;5067632;28;20135;-73
2022/07/03 04:46:40;;;;;;;1.40;1.10;;;22.90;58.50;;;;;;5068020;28;20504;-72
2022/07/03 04:49:07;;;;;;;1.17;1.08;;;22.90;58.50;;;;;;5068631;28;20436;-72
2022/07/03 04:51:33;;;;;;;1.15;1.05;;;22.90;58.50;;;;;;5047572;28;20053;-73
2022/07/03 04:54:00;;;;;;;1.30;1.10;;;22.90;58.50;;;;;;5047374;28;20565;-73
2022/07/03 04:56:27;;;;;;;1.48;1.10;;;22.90;58.50;;;;;;5048712;28;20057;-73
2022/07/03 04:58:53;;;;;;;1.10;1.00;;;22.90;58.50;;;;;;5057913;28;20051;-73
2022/07/03 05:01:22;;;;;;;1.20;1.08;;;22.90;58.50;;;;;;5067480;28;20482;-72
2022/07/03 05:03:48;;;;;;;1.15;1.05;;;22.90;58.50;;;;;;5067273;28;20048;-73
2022/07/03 05:06:15;;;;;;;1.35;1.10;;;22.90;58.50;;;;;;5067262;28;20135;-72
2022/07/03 05:08:42;;;;;;;2.00;1.30;;;22.90;58.50;;;;;;5067700;28;20151;-73
2022/07/03 05:11:09;;;;;;;1.30;1.08;;;22.80;58.50;;;;;;5067596;28;20136;-73
2022/07/03 05:13:37;;;;;;;1.33;1.00;;;22.80;58.50;;;;;;5067293;28;20053;-73
2022/07/03 05:16:04;;;;;;;1.15;1.05;;;22.80;58.50;;;;;;5067426;28;20127;-73
2022/07/03 05:18:32;;;;;;;2.45;1.20;;;22.80;58.50;;;;;;5067210;28;20052;-73
2022/07/03 05:20:59;;;;;;;3.28;1.20;;;22.80;58.50;;;;;;5048997;28;20051;-73
2022/07/03 05:23:25;;;;;;;1.80;1.17;;;22.90;58.50;;;;;;5047234;28;20059;-73
2022/07/03 05:25:52;;;;;;;1.30;1.20;;;22.80;58.40;;;;;;5047474;28;20128;-73
2022/07/03 05:28:19;;;;;;;2.28;1.15;;;22.80;58.40;;;;;;5047380;28;20474;-73
2022/07/03 05:30:46;;;;;;;2.22;1.17;;;22.80;58.40;;;;;;5047402;28;20088;-73
2022/07/03 05:33:12;;;;;;;1.15;1.00;;;22.80;58.40;;;;;;5046721;28;20378;-72
2022/07/03 05:35:40;;;;;;;1.20;1.10;;;24.10;59.10;;;;;;5058330;28;20141;-73
2022/07/03 05:38:07;;;;;;;1.20;1.10;;;22.80;58.30;;;;;;5047274;28;20091;-72
2022/07/03 05:40:34;;;;;;;1.55;1.10;;;22.80;58.30;;;;;;5046834;28;20619;-72
2022/07/03 05:43:00;;;;;;;1.50;1.30;;;22.80;58.30;;;;;;5046800;28;20140;-73
2022/07/03 05:45:27;;;;;;;1.83;1.35;;;22.80;58.20;;;;;;5047771;28;20053;-74
2022/07/03 05:47:54;;;;;;;1.85;1.20;;;22.80;58.30;;;;;;5060591;28;20044;-73
2022/07/03 05:50:21;;;;;;;1.98;1.33;;;22.80;58.20;;;;;;5067515;28;20125;-71
2022/07/03 05:52:49;;;;;;;1.63;1.40;;;22.90;58.30;;;;;;5067344;28;20059;-72
2022/07/03 05:55:15;;;;;;;2.40;1.40;;;22.90;58.40;;;;;;5068421;28;20052;-72
2022/07/03 05:57:42;;;;;;;1.90;1.38;;;22.90;58.50;;;;;;5061349;28;20053;-74
2022/07/03 06:00:10;;;;;;;2.42;1.25;;;23.00;58.60;;;;;;5057199;28;20495;-73
2022/07/03 06:02:37;;;;;;;1.33;1.20;;;23.00;58.50;;;;;;5053380;28;20060;-72
2022/07/03 06:05:04;;;;;;;1.50;1.20;;;23.20;58.40;;;;;;5071319;28;20054;-73
2022/07/03 06:07:30;;;;;;;1.83;1.50;;;23.30;58.30;;;;;;5065367;28;20151;-71
2022/07/03 06:09:58;;;;;;;3.45;1.60;;;23.40;58.00;;;;;;5058659;28;20059;-71
2022/07/03 06:12:25;;;;;;;7.28;1.73;;;23.50;57.80;;;;;;5054000;28;20045;-71
2022/07/03 06:14:52;;;;;;;2.88;1.40;;;23.70;57.60;;;;;;5065373;28;20060;-71
2022/07/03 06:17:18;;;;;;;3.85;1.50;;;23.80;57.30;;;;;;5069997;28;20131;-72
2022/07/03 06:19:45;;;;;;;1.95;1.20;;;24.00;57.00;;;;;;5070610;28;20135;-73
2022/07/03 06:22:12;;;;;;;3.45;1.23;;;24.10;56.70;;;;;;5070799;28;20135;-71
2022/07/03 06:24:39;;;;;;;2.40;1.38;;;24.20;56.50;;;;;;5068557;28;20700;-72
2022/07/03 06:27:07;;;;;;;2.90;1.40;;;24.30;56.30;;;;;;5054852;28;20143;-73
2022/07/03 06:29:34;;;;;;;1.80;1.15;;;24.40;56.10;;;;;;5056385;28;20128;-71
2022/07/03 06:32:00;;;;;;;2.90;1.40;;;24.60;56.00;;;;;;5051423;28;20049;-72
2022/07/03 06:34:27;;;;;;;4.35;1.50;;;24.70;55.80;;;;;;5050625;28;20421;-72
2022/07/03 06:36:54;;;;;;;2.33;1.20;;;24.80;55.70;;;;;;5057813;28;20136;-71
2022/07/03 06:39:20;;;;;;;5.05;1.42;;;25.00;55.60;;;;;;5061418;28;20120;-72
2022/07/03 06:41:47;;;;;;;1.55;1.20;;;24.90;55.30;;;;;;5059498;28;20652;-72
2022/07/03 06:44:15;;;;;;;1.95;1.20;;;25.00;55.20;;;;;;5060171;28;20041;-71
2022/07/03 06:46:42;;;;;;;1.63;1.30;;;25.20;55.10;;;;;;5060633;28;20128;-72
2022/07/03 06:49:09;;;;;;;1.60;1.45;;;25.20;54.80;;;;;;5065431;28;20142;-72
2022/07/03 06:51:35;;;;;;;2.10;1.30;;;25.40;54.80;;;;;;5064527;28;20494;-71
2022/07/03 06:54:02;;;;;;;1.20;1.10;;;25.40;54.60;;;;;;5060629;28;20078;-72
2022/07/03 06:56:29;;;;;;;2.85;1.20;;;25.50;54.40;;;;;;5070299;28;20071;-72
2022/07/03 06:58:55;;;;;;;1.60;1.10;;;25.60;54.60;;;;;;5069809;28;20063;-71
2022/07/03 07:01:24;;;;;;;1.75;1.20;;;25.70;54.50;;;;;;5065174;28;20532;-74
2022/07/03 07:03:50;;;;;;;2.85;1.15;;;25.80;54.40;;;;;;5060817;28;20046;-72
2022/07/03 07:06:17;;;;;;;2.22;1.13;;;25.90;54.40;;;;;;5052678;28;20057;-72
2022/07/03 07:08:44;;;;;;;3.25;1.30;;;26.00;54.20;;;;;;5049789;28;20144;-71
2022/07/03 07:11:10;;;;;;;6.25;1.60;;;26.00;54.10;;;;;;5060575;28;20053;-71
2022/07/03 07:13:37;;;;;;;2.53;1.17;;;26.10;54.20;;;;;;5054842;28;20053;-72
2022/07/03 07:16:04;;;;;;;1.92;1.23;;;26.10;54.10;;;;;;5050724;28;20080;-71
2022/07/03 07:18:32;;;;;;;1.27;1.02;;;26.20;54.00;;;;;;5055333;28;20246;-71
2022/07/03 07:20:59;;;;;;;1.77;1.20;;;26.20;53.70;;;;;;5058834;28;20132;-71
2022/07/03 07:23:25;;;;;;;2.00;1.23;;;26.30;53.60;;;;;;5058285;28;20053;-72
2022/07/03 07:25:52;;;;;;;4.10;1.27;;;26.30;53.20;;;;;;5060346;28;20125;-71
2022/07/03 07:28:19;;;;;;;1.27;1.10;;;26.30;53.20;;;;;;5056149;28;20048;-72
2022/07/03 07:30:45;;;;;;;4.30;1.55;;;26.30;53.10;;;;;;5054827;28;20049;-72
2022/07/03 07:33:12;;;;;;;2.15;1.10;;;26.30;52.90;;;;;;5069101;28;20048;-72
2022/07/03 07:35:43;;;;;;;1.23;1.00;;;26.40;52.90;;;;;;5064020;28;20130;-71
2022/07/03 07:38:09;;;;;;;3.72;1.00;;;26.40;53.00;;;;;;5055273;28;20041;-72
2022/07/03 07:40:36;;;;;;;1.92;0.95;;;26.40;52.80;;;;;;5055735;28;20045;-72
2022/07/03 07:43:03;;;;;;;3.00;1.08;;;26.40;52.80;;;;;;5069241;28;20485;-70
2022/07/03 07:45:30;;;;;;;2.33;1.20;;;26.40;52.80;;;;;;5069004;28;20055;-72
2022/07/03 07:47:56;;;;;;;3.25;1.10;;;26.40;52.70;;;;;;5069030;28;20052;-71
2022/07/03 07:50:23;;;;;;;5.32;1.27;;;26.50;52.70;;;;;;5066530;28;20623;-72
2022/07/03 07:52:51;;;;;;;4.47;1.13;;;26.40;52.70;;;;;;5059620;28;20044;-73
2022/07/03 07:55:18;;;;;;;5.95;1.20;;;26.50;52.80;;;;;;5048871;28;20522;-73
2022/07/03 07:57:45;;;;;;;1.95;1.10;;;26.50;52.80;;;;;;5048947;28;20136;-72
2022/07/03 08:00:13;;;;;;;2.58;1.02;;;26.50;52.80;;;;;;5060036;28;20063;-72
2022/07/03 08:05:36;;;;;;;1.43;1.10;;;26.50;52.80;;;;;;5068562;28;20549;-71
2022/07/03 08:08:05;;;;;;;3.47;1.10;;;26.50;52.90;;;;;;5068781;28;20309;-72
2022/07/03 08:10:35;;;;;;;3.00;1.05;;;26.50;52.90;;;;;;5068045;28;20088;-72
2022/07/03 08:13:01;;;;;;;1.95;1.27;;;26.60;52.90;;;;;;5069706;28;20059;-71
2022/07/03 08:15:28;;;;;;;1.92;1.20;;;26.60;52.80;;;;;;5068874;28;20131;-71
2022/07/03 08:17:55;;;;;;;3.53;1.00;;;26.70;52.80;;;;;;5061511;28;20048;-71
2022/07/03 08:20:22;;;;;;;3.17;1.15;;;26.70;52.80;;;;;;5059359;28;20048;-71
2022/07/03 08:22:48;;;;;;;1.40;0.95;;;26.80;52.80;;;;;;5054838;28;20052;-71
2022/07/03 08:25:16;;;;;;;2.03;0.90;;;26.80;52.70;;;;;;5049875;28;20051;-72
2022/07/03 08:27:43;;;;;;;4.78;1.00;;;26.80;52.70;;;;;;5048213;28;20049;-72
2022/07/03 08:30:10;;;;;;;2.38;1.00;;;26.80;52.60;;;;;;5048046;28;20061;-73
2022/07/03 08:32:37;;;;;;;2.00;1.00;;;26.90;52.60;;;;;;5048227;28;20049;-72
2022/07/03 08:35:04;;;;;;;2.08;0.90;;;26.90;52.60;;;;;;5048349;28;20052;-72
2022/07/03 08:37:31;;;;;;;3.00;1.10;;;26.90;52.50;;;;;;5048224;28;20490;-72
2022/07/03 08:39:58;;;;;;;2.13;1.20;;;27.00;52.40;;;;;;5065235;28;20106;-72
2022/07/03 08:42:26;;;;;;;1.30;0.90;;;27.00;52.30;;;;;;5068321;28;20053;-73
2022/07/03 08:44:53;;;;;;;2.30;1.02;;;27.10;52.40;;;;;;5067806;28;20049;-73
2022/07/03 08:47:20;;;;;;;2.95;1.10;;;27.10;52.40;;;;;;5067962;28;20056;-73
2022/07/03 08:49:46;;;;;;;2.08;1.10;;;27.10;52.40;;;;;;5067958;28;20087;-73
2022/07/03 08:52:13;;;;;;;1.15;0.90;;;27.10;52.40;;;;;;5067729;28;20060;-72
2022/07/03 08:54:40;;;;;;;2.75;0.77;;;27.00;52.30;;;;;;5051278;28;20055;-72
2022/07/03 08:57:06;;;;;;;1.88;0.90;;;27.10;52.40;;;;;;5047999;28;20655;-72
2022/07/03 08:59:37;;;;;;;1.60;0.85;;;27.10;52.40;;;;;;5050499;28;20064;-72
2022/07/03 09:02:04;;;;;;;2.03;0.90;;;27.10;52.40;;;;;;5057251;28;20061;-72
2022/07/03 09:04:31;;;;;;;1.95;0.82;;;27.10;52.40;;;;;;5055048;28;20052;-72
2022/07/03 09:06:58;;;;;;;1.55;0.95;;;27.10;52.30;;;;;;5048295;28;20053;-72
2022/07/03 09:09:24;;;;;;;1.30;0.95;;;27.20;52.30;;;;;;5048401;28;20136;-72
2022/07/03 09:11:51;;;;;;;1.60;0.90;;;27.30;52.30;;;;;;5047603;28;20074;-71
2022/07/03 09:14:18;;;;;;;1.30;1.00;;;27.20;51.90;;;;;;5049402;28;20057;-73
2022/07/03 09:16:46;;;;;;;0.90;0.90;;;27.20;51.80;;;;;;5048838;28;20124;-72
2022/07/03 09:19:13;;;;;;;1.10;0.90;;;27.20;51.90;;;;;;5047577;28;20079;-72
2022/07/03 09:21:40;;;;;;;1.05;0.88;;;27.10;51.80;;;;;;5052599;28;20063;-72
2022/07/03 09:24:07;;;;;;;1.95;1.08;;;26.90;51.80;;;;;;5047255;28;20063;-73
2022/07/03 09:26:34;;;;;;;2.17;1.20;;;26.90;51.90;;;;;;5047273;28;20144;-71
2022/07/03 09:29:01;;;;;;;1.63;1.00;;;26.80;52.00;;;;;;5047431;28;20061;-72
2022/07/03 09:31:29;;;;;;;1.00;0.90;;;26.80;52.10;;;;;;5047473;28;20407;-71
2022/07/03 09:33:58;;;;;;;2.22;0.93;;;26.80;52.20;;;;;;5047219;28;20132;-72
2022/07/03 09:36:42;;;;;;;1.65;1.10;;;26.70;52.10;;;;;;5048793;28;20079;-72
2022/07/03 09:39:17;;;;;;;1.30;0.88;;;26.70;52.80;;;;;;5052020;28;20171;-72
2022/07/03 09:41:54;;;;;;;3.15;1.17;;;26.70;52.30;;;;;;5071919;28;20620;-72
2022/07/03 09:44:34;;;;;;;1.20;1.00;;;26.70;52.40;;;;;;5072265;28;20079;-71
2022/07/03 09:47:11;;;;;;;1.02;0.85;;;26.70;52.40;;;;;;5071712;28;20448;-72
2022/07/03 09:49:52;;;;;;;4.38;0.98;;;26.70;52.50;;;;;;5070749;28;20058;-74
2022/07/03 09:52:36;;;;;;;0.80;0.80;;;26.60;52.60;;;;;;5070101;28;20129;-71
2022/07/03 09:55:12;;;;;;;1.17;0.80;;;26.50;52.60;;;;;;5071250;28;20048;-72
2022/07/03 09:57:40;;;;;;;1.80;1.00;;;26.60;53.30;;;;;;5072844;28;20558;-72
2022/07/03 10:00:20;;;;;;;1.50;0.95;;;26.50;52.70;;;;;;5072614;28;20048;-72
2022/07/03 10:02:53;;;;;;;0.88;0.88;;;26.60;52.80;;;;;;5070466;28;20159;-72
2022/07/03 10:05:21;;;;;;;2.67;1.10;;;26.50;52.80;;;;;;5071738;28;20680;-71
2022/07/03 10:07:52;;;;;;;0.98;0.80;;;26.50;52.90;;;;;;5068534;28;20096;-72
2022/07/03 10:10:20;;;;;;;1.67;0.98;;;26.50;52.90;;;;;;5072452;28;20048;-72
2022/07/03 10:12:47;;;;;;;1.95;0.90;;;26.50;53.00;;;;;;5070657;28;20056;-71
2022/07/03 10:15:14;;;;;;;2.67;0.90;;;26.40;53.00;;;;;;5070850;28;20139;-72
2022/07/03 10:17:41;;;;;;;1.35;1.00;;;26.40;53.00;;;;;;5072256;28;20128;-72
2022/07/03 10:20:08;;;;;;;1.27;1.00;;;26.40;53.10;;;;;;5070584;28;20059;-71
2022/07/03 10:22:36;;;;;;;1.50;1.00;;;26.40;53.20;;;;;;5060500;28;20052;-71
2022/07/03 10:25:03;;;;;;;0.82;0.80;;;26.30;53.30;;;;;;5049607;28;20263;-74
2022/07/03 10:27:30;;;;;;;2.22;0.93;;;26.30;53.30;;;;;;5049032;28;20092;-74
2022/07/03 10:29:57;;;;;;;1.63;0.80;;;26.30;53.40;;;;;;5060311;28;20194;-73
2022/07/03 10:32:23;;;;;;;1.75;0.90;;;26.30;53.40;;;;;;5050151;28;20063;-73
2022/07/03 10:34:50;;;;;;;1.83;0.80;;;26.30;53.40;;;;;;5059334;28;20127;-74
2022/07/03 10:37:18;;;;;;;1.42;0.93;;;26.30;53.50;;;;;;5055885;28;20492;-73
2022/07/03 10:39:49;;;;;;;1.63;0.95;;;26.30;53.50;;;;;;5049830;28;20092;-74
2022/07/03 10:45:09;;;;;;;1.05;1.00;;;26.20;53.60;;;;;;5057417;28;20078;-75
2022/07/03 10:47:44;;;;;;;0.93;0.80;;;26.20;53.80;;;;;;5070182;28;20052;-72
2022/07/03 10:50:12;;;;;;;1.30;1.00;;;26.20;53.80;;;;;;5069034;28;20059;-73
2022/07/03 10:52:39;;;;;;;1.83;1.00;;;26.10;53.90;;;;;;5070568;28;20139;-72
2022/07/03 10:55:07;;;;;;;1.83;1.20;;;26.10;54.00;;;;;;5051299;28;20057;-72
2022/07/03 10:57:34;;;;;;;1.35;1.00;;;26.10;54.00;;;;;;5033788;28;20139;-72
2022/07/03 11:00:18;;;;;;;1.08;0.90;;;26.20;54.10;;;;;;5050084;28;20172;-73
2022/07/03 11:02:46;;;;;;;1.80;0.90;;;26.20;54.00;;;;;;5067930;28;20453;-72
2022/07/03 11:05:27;;;;;;;2.10;0.98;;;26.20;54.00;;;;;;5069695;28;20620;-72
2022/07/03 11:08:09;;;;;;;0.93;0.80;;;26.20;54.00;;;;;;5064898;28;20049;-72
2022/07/03 11:10:41;;;;;;;2.35;1.20;;;26.30;54.00;;;;;;5050228;28;20088;-71
2022/07/03 11:13:10;;;;;;;1.25;0.90;;;26.20;53.90;;;;;;5049617;28;20076;-71
2022/07/03 11:15:39;;;;;;;2.47;0.90;;;26.30;54.00;;;;;;5049865;28;20056;-71
2022/07/03 11:18:24;;;;;;;2.35;0.98;;;26.30;53.90;;;;;;5049914;28;20056;-72
2022/07/03 11:21:28;;;;;;;1.00;0.90;;;26.30;53.90;;;;;;5046436;28;20067;-71
2022/07/03 11:24:04;;;;;;;2.45;0.80;;;26.30;53.90;;;;;;5049571;28;20053;-71
2022/07/03 11:26:32;;;;;;;0.80;0.75;;;26.30;53.90;;;;;;5063655;28;20087;-71
2022/07/03 11:28:59;;;;;;;1.25;0.90;;;26.30;53.90;;;;;;5070635;28;20048;-72
2022/07/03 11:31:26;;;;;;;1.00;0.90;;;26.30;53.90;;;;;;5069718;28;20507;-73
2022/07/03 11:33:58;;;;;;;2.08;1.10;;;26.30;53.90;;;;;;5069432;28;20057;-71
2022/07/03 11:36:28;;;;;;;1.17;0.95;;;26.30;53.90;;;;;;5069481;28;20507;-72
2022/07/03 11:39:04;;;;;;;1.30;0.90;;;26.30;54.00;;;;;;5069553;28;20063;-72
2022/07/03 11:41:43;;;;;;;1.10;1.00;;;26.30;53.90;;;;;;5068073;28;20064;-71
2022/07/03 11:44:10;;;;;;;1.85;0.98;;;26.30;53.90;;;;;;5069356;28;20079;-72
2022/07/03 11:46:38;;;;;;;0.65;0.65;;;26.30;54.20;;;;;;5069179;28;20053;-72
2022/07/03 11:49:08;;;;;;;1.45;1.00;;;26.30;54.10;;;;;;5058842;28;20098;-72
2022/07/03 11:51:35;;;;;;;2.97;0.93;;;26.30;54.30;;;;;;5049268;28;20049;-72
2022/07/03 11:54:02;;;;;;;11.98;2.22;;;26.30;54.40;;;;;;5050122;28;20071;-72
2022/07/03 11:56:29;;;;;;;7.03;2.58;;;26.30;54.30;;;;;;5068051;28;20048;-72
2022/07/03 11:58:57;;;;;;;7.55;2.55;;;26.20;54.30;;;;;;5070318;28;20512;-73
2022/07/03 12:01:32;;;;;;;6.40;2.67;;;26.20;54.40;;;;;;5068352;28;20529;-75
2022/07/03 12:04:09;;;;;;;6.95;2.30;;;26.20;54.40;;;;;;5068583;28;20131;-72
2022/07/03 12:06:36;;;;;;;6.72;2.47;;;26.20;54.50;;;;;;5068707;28;20413;-71
2022/07/03 12:09:03;;;;;;;8.60;2.85;;;26.20;54.50;;;;;;5067704;28;20067;-72
2022/07/03 12:11:29;;;;;;;9.43;2.40;;;26.10;54.70;;;;;;5069050;28;20052;-73
2022/07/03 12:13:57;;;;;;;10.38;2.75;;;26.10;54.80;;;;;;5068448;28;20052;-73
2022/07/03 12:16:32;;;;;;;5.68;2.17;;;26.10;55.00;;;;;;5068786;28;20120;-72
2022/07/03 12:19:04;;;;;;;5.13;2.40;;;26.20;55.10;;;;;;5061380;28;20052;-75
2022/07/03 12:21:36;;;;;;;5.07;2.30;;;26.10;55.20;;;;;;5048744;28;20057;-73
2022/07/03 12:24:12;;;;;;;8.60;2.10;;;26.10;55.30;;;;;;5048427;28;20136;-72
2022/07/03 12:26:38;;;;;;;4.10;1.80;;;26.10;55.40;;;;;;5048134;28;20055;-75
2022/07/03 12:29:08;;;;;;;5.07;2.13;;;26.10;55.40;;;;;;5048384;28;20500;-74
2022/07/03 12:31:34;;;;;;;2.92;1.65;;;26.10;55.40;;;;;;5049843;28;20053;-75
2022/07/03 12:34:02;;;;;;;4.85;1.98;;;26.10;55.40;;;;;;5067629;28;20064;-74
2022/07/03 12:36:29;;;;;;;3.80;1.70;;;26.10;55.50;;;;;;5068215;28;20127;-75
2022/07/03 12:38:56;;;;;;;4.22;1.80;;;26.10;55.50;;;;;;5068392;28;20060;-75
2022/07/03 12:41:23;;;;;;;3.15;1.70;;;26.10;55.50;;;;;;5068105;28;20131;-73
2022/07/03 12:43:51;;;;;;;5.80;1.70;;;26.10;55.70;;;;;;5067761;28;20080;-72
2022/07/03 12:46:23;;;;;;;3.78;1.92;;;26.00;55.70;;;;;;5067720;28;20044;-73
2022/07/03 12:48:51;;;;;;;5.47;1.90;;;26.10;55.80;;;;;;5062120;28;20052;-72
2022/07/03 12:51:18;;;;;;;3.33;1.60;;;26.00;55.80;;;;;;5048007;28;20060;-72
2022/07/03 12:53:45;;;;;;;3.28;1.83;;;26.10;55.80;;;;;;5047664;28;20132;-72
2022/07/03 12:56:12;;;;;;;5.55;2.00;;;26.10;56.10;;;;;;5055598;28;20540;-74
2022/07/03 13:01:29;;;;;;;3.70;1.83;;;26.10;56.20;;;;;;5067165;28;20044;-73
2022/07/03 13:03:56;;;;;;;3.15;1.70;;;26.10;56.20;;;;;;5053511;28;20055;-74